Time;durP1;ratioP1;P1;durP2;ratioP2;P2;SDS_P1;SDS_P2;PMS_P1;PMS_P2;Temp;Humidity;BMP_temperature;BMP_pressure;BME280_temperature;BME280_humidity;BME280_pressure;Samples;Min_cycle;Max_cycle;Signal;HPM_P1;HPM_P2
2021/04/29 00:00:17;;;;;;;26.27;5.13;;;;;;;20.03;48.58;100453.06;2064539;28;20109;-61
2021/04/29 00:01:18;;;;;;;21.55;4.88;;;;;;;20.02;48.86;100445.97;2063919;28;20046;-62
2021/04/29 00:02:19;;;;;;;17.55;4.85;;;;;;;20.02;48.72;100454.13;2063809;28;20084;-62
2021/04/29 00:03:20;;;;;;;19.90;5.20;;;;;;;19.99;49.04;100449.94;2064346;28;20502;-61
2021/04/29 00:04:20;;;;;;;19.00;5.45;;;;;;;20.02;48.75;100445.97;2063934;28;20041;-62
2021/04/29 00:05:22;;;;;;;18.33;4.82;;;;;;;20.00;48.65;100450.78;2064521;28;20034;-61
2021/04/29 00:06:23;;;;;;;20.60;5.28;;;;;;;20.01;48.70;100456.00;2064061;28;20087;-61
2021/04/29 00:07:24;;;;;;;15.57;4.55;;;;;;;20.00;48.69;100450.78;2064488;28;20093;-61
2021/04/29 00:08:24;;;;;;;18.27;4.68;;;;;;;19.99;48.71;100443.66;2064166;28;20068;-62
2021/04/29 00:09:25;;;;;;;19.58;4.47;;;;;;;19.99;48.62;100455.38;2064455;28;20045;-62
2021/04/29 00:10:30;;;;;;;17.42;5.25;;;;;;;19.97;48.64;100452.03;2064554;28;20027;-61
2021/04/29 00:11:33;;;;;;;17.20;4.70;;;;;;;19.96;48.92;100447.63;2064488;28;20572;-61
2021/04/29 00:12:33;;;;;;;17.58;4.57;;;;;;;19.97;48.78;100448.47;2063887;28;20464;-61
2021/04/29 00:13:34;;;;;;;20.15;4.82;;;;;;;19.96;48.70;100444.91;2064408;28;20027;-62
2021/04/29 00:14:35;;;;;;;16.45;4.30;;;;;;;19.94;48.66;100452.44;2064352;28;20471;-62
2021/04/29 00:15:35;;;;;;;19.88;4.97;;;;;;;19.93;49.00;100449.91;2064448;28;20474;-61
2021/04/29 00:16:36;;;;;;;15.50;4.45;;;;;;;19.94;48.83;100449.72;2064418;28;20486;-61
2021/04/29 00:17:37;;;;;;;19.25;4.85;;;;;;;19.93;48.62;100444.50;2064496;28;20034;-62
2021/04/29 00:18:37;;;;;;;20.52;5.15;;;;;;;19.92;48.41;100442.84;2064452;28;20109;-61
2021/04/29 00:19:38;;;;;;;13.25;4.65;;;;;;;19.94;48.80;100452.44;2063939;28;20735;-61
2021/04/29 00:20:38;;;;;;;17.77;4.80;;;;;;;19.93;48.88;100444.50;2064421;28;20073;-62
2021/04/29 00:21:39;;;;;;;17.13;4.57;;;;;;;19.92;48.86;100457.22;2064132;28;20402;-61
2021/04/29 00:22:40;;;;;;;15.30;5.10;;;;;;;19.90;48.86;100451.19;2064377;28;20041;-62
2021/04/29 00:23:40;;;;;;;17.25;4.70;;;;;;;19.89;48.79;100452.25;2064189;28;20030;-62
2021/04/29 00:24:41;;;;;;;17.25;4.82;;;;;;;19.90;48.70;100451.19;2064376;28;20478;-62
2021/04/29 00:25:41;;;;;;;17.45;4.88;;;;;;;19.91;48.52;100450.16;2064363;28;20394;-61
2021/04/29 00:26:42;;;;;;;14.30;4.65;;;;;;;19.93;48.31;100450.75;2063793;28;20026;-61
2021/04/29 00:27:42;;;;;;;18.30;4.35;;;;;;;19.91;48.32;100452.88;2064324;28;20042;-62
2021/04/29 00:28:43;;;;;;;15.23;4.40;;;;;;;19.91;48.45;100446.59;2064262;28;20042;-61
2021/04/29 00:29:43;;;;;;;16.70;4.80;;;;;;;19.90;48.24;100453.91;2063729;28;20033;-61
2021/04/29 00:30:44;;;;;;;17.00;4.75;;;;;;;19.92;48.43;100446.38;2063755;28;20037;-61
2021/04/29 00:31:45;;;;;;;17.60;4.22;;;;;;;19.88;48.49;100445.13;2064351;28;20386;-61
2021/04/29 00:32:46;;;;;;;13.52;4.13;;;;;;;19.88;48.51;100445.13;2064311;28;20033;-61
2021/04/29 00:33:46;;;;;;;21.55;5.07;;;;;;;19.87;48.47;100446.19;2063605;28;20034;-61
2021/04/29 00:34:47;;;;;;;14.05;4.47;;;;;;;19.87;48.68;100448.91;2063206;28;20514;-61
2021/04/29 00:35:47;;;;;;;10.20;4.03;;;;;;;19.87;48.58;100450.78;2062811;28;20026;-61
2021/04/29 00:36:49;;;;;;;13.73;4.30;;;;;;;19.85;48.44;100446.38;2063901;28;20387;-61
2021/04/29 00:37:49;;;;;;;12.25;4.13;;;;;;;19.84;48.37;100454.75;2063873;28;20023;-61
2021/04/29 00:38:50;;;;;;;12.50;4.07;;;;;;;19.82;48.49;100457.66;2063640;28;20255;-61
2021/04/29 00:39:50;;;;;;;13.50;4.00;;;;;;;19.82;48.46;100451.38;2064481;28;20034;-61
2021/04/29 00:40:50;;;;;;;15.43;4.10;;;;;;;19.85;48.49;100445.53;2064224;28;20363;-61
2021/04/29 00:41:51;;;;;;;11.50;3.83;;;;;;;19.85;48.31;100454.53;2063896;28;20061;-60
2021/04/29 00:42:51;;;;;;;17.52;4.45;;;;;;;19.84;48.61;100452.03;2064438;28;20038;-61
2021/04/29 00:43:52;;;;;;;14.15;4.15;;;;;;;19.84;48.78;100452.03;2064239;28;20564;-61
2021/04/29 00:44:53;;;;;;;11.73;3.67;;;;;;;19.83;48.92;100445.75;2064270;28;20026;-61
2021/04/29 00:45:53;;;;;;;14.05;4.40;;;;;;;19.83;48.98;100448.47;2064164;28;20530;-61
2021/04/29 00:46:57;;;;;;;11.32;4.28;;;;;;;19.80;48.96;100446.16;2064374;28;20042;-61
2021/04/29 00:47:57;;;;;;;13.73;4.10;;;;;;;19.82;49.00;100457.66;2064234;28;20047;-61
2021/04/29 00:48:58;;;;;;;13.63;4.20;;;;;;;19.81;49.07;100450.53;2063733;28;20041;-61
2021/04/29 00:49:59;;;;;;;11.40;4.03;;;;;;;19.81;49.04;100449.72;2064409;28;20477;-61
2021/04/29 00:50:59;;;;;;;11.85;3.35;;;;;;;19.81;49.13;100455.16;2064551;28;20038;-61
2021/04/29 00:51:59;;;;;;;10.18;3.80;;;;;;;19.81;48.96;100455.97;2064036;28;20485;-60
2021/04/29 00:53:00;;;;;;;11.82;3.88;;;;;;;19.80;49.04;100450.75;2064386;28;20046;-61
2021/04/29 00:54:00;;;;;;;12.25;3.85;;;;;;;19.81;48.94;100449.72;2064055;28;20458;-61
2021/04/29 00:55:01;;;;;;;10.93;3.90;;;;;;;19.79;48.86;100452.63;2064359;28;20481;-61
2021/04/29 00:56:02;;;;;;;15.68;4.15;;;;;;;19.78;48.91;100453.66;2064094;28;20569;-61
2021/04/29 00:57:03;;;;;;;12.80;4.20;;;;;;;19.77;48.99;100452.00;2063953;28;20109;-61
2021/04/29 00:58:03;;;;;;;14.13;4.38;;;;;;;19.77;48.95;100453.88;2064286;28;20405;-61
2021/04/29 00:59:04;;;;;;;14.38;4.07;;;;;;;19.78;48.92;100450.13;2064252;28;20023;-62
2021/04/29 01:00:06;;;;;;;11.93;4.15;;;;;;;19.77;49.08;100448.44;2064255;28;20045;-61
2021/04/29 01:01:07;;;;;;;8.65;3.78;;;;;;;19.77;49.00;100451.16;2064215;28;20057;-61
2021/04/29 01:02:08;;;;;;;14.80;4.25;;;;;;;19.77;48.98;100449.28;2064066;28;20022;-61
2021/04/29 01:03:17;;;;;;;10.10;3.85;;;;;;;19.75;48.63;100447.81;2064171;28;20058;-61
2021/04/29 01:04:26;;;;;;;11.68;4.03;;;;;;;19.76;48.98;100446.78;2063546;28;20042;-61
2021/04/29 01:05:34;;;;;;;12.75;3.53;;;;;;;19.74;48.81;100449.69;2064110;28;20034;-61
2021/04/29 01:06:48;;;;;;;11.55;3.90;;;;;;;19.72;49.05;100450.94;2063930;28;20046;-61
2021/04/29 01:07:57;;;;;;;8.63;3.60;;;;;;;19.73;48.99;100445.31;2064246;28;20446;-61
2021/04/29 01:09:10;;;;;;;11.55;3.80;;;;;;;19.70;49.05;100453.84;2058870;28;20026;-61
2021/04/29 01:10:26;;;;;;;8.73;3.33;;;;;;;19.71;49.04;100452.81;2064130;28;20548;-61
2021/04/29 01:11:31;;;;;;;14.40;4.47;;;;;;;19.71;48.41;100455.53;2063782;28;20037;-61
2021/04/29 01:12:36;;;;;;;12.30;4.55;;;;;;;19.71;48.61;100449.25;2064277;28;20030;-61
2021/04/29 01:13:40;;;;;;;13.90;3.80;;;;;;;19.71;48.34;100451.97;2064136;28;20026;-61
2021/04/29 01:14:41;;;;;;;10.27;4.18;;;;;;;19.70;48.54;100458.47;2064087;28;20038;-61
2021/04/29 01:15:44;;;;;;;10.57;3.88;;;;;;;19.71;48.30;100451.97;2064361;28;20622;-61
2021/04/29 01:16:44;;;;;;;10.45;3.55;;;;;;;19.69;48.33;100452.22;2064234;28;20492;-61
2021/04/29 01:17:47;;;;;;;13.45;4.05;;;;;;;19.70;48.26;100453.03;2064179;28;20033;-62
2021/04/29 01:18:48;;;;;;;8.40;3.55;;;;;;;19.68;48.57;100457.84;2063714;28;20037;-61
2021/04/29 01:20:04;;;;;;;11.38;3.88;;;;;;;19.68;48.47;100455.97;2064332;28;20030;-61
2021/04/29 01:21:14;;;;;;;11.82;3.80;;;;;;;19.68;48.20;100464.13;2065865;28;20034;-61
2021/04/29 01:22:15;;;;;;;10.55;4.15;;;;;;;19.68;48.15;100466.00;2065709;28;20018;-61
2021/04/29 01:23:28;;;;;;;11.15;3.92;;;;;;;19.67;48.69;100464.31;2065876;28;20039;-61
2021/04/29 01:24:32;;;;;;;9.23;3.78;;;;;;;19.68;48.58;100468.72;2065567;28;20037;-61
2021/04/29 01:25:34;;;;;;;8.82;3.38;;;;;;;19.68;48.38;100468.72;2065776;28;20424;-61
2021/04/29 01:26:43;;;;;;;11.57;3.95;;;;;;;19.66;48.39;100471.63;2065084;28;20049;-61
2021/04/29 01:27:44;;;;;;;9.30;3.72;;;;;;;19.67;48.38;100472.47;2059061;28;20034;-61
2021/04/29 01:28:47;;;;;;;13.50;4.43;;;;;;;19.67;48.38;100470.59;2065593;28;20529;-61
2021/04/29 01:29:49;;;;;;;11.55;3.80;;;;;;;19.66;48.31;100465.34;2065725;28;20035;-61
2021/04/29 01:30:50;;;;;;;11.48;3.25;;;;;;;19.66;48.22;100470.78;2065647;28;20371;-61
2021/04/29 01:31:52;;;;;;;8.52;3.70;;;;;;;19.65;48.40;100472.66;2065774;28;20530;-61
2021/04/29 01:32:54;;;;;;;8.38;3.40;;;;;;;19.65;48.54;100471.81;2065591;28;20034;-61
2021/04/29 01:33:58;;;;;;;10.40;3.78;;;;;;;19.66;48.53;100478.94;2065116;28;20038;-61
2021/04/29 01:34:59;;;;;;;10.40;3.83;;;;;;;19.64;48.42;100471.00;2065532;28;20394;-62
2021/04/29 01:36:01;;;;;;;8.38;3.55;;;;;;;19.65;48.25;100475.38;2065572;28;20509;-61
2021/04/29 01:37:02;;;;;;;11.05;3.42;;;;;;;19.66;48.38;100476.22;2065424;28;20022;-61
2021/04/29 01:38:02;;;;;;;9.10;3.70;;;;;;;19.66;48.43;100478.94;2065553;28;20609;-62
2021/04/29 01:39:09;;;;;;;8.82;3.53;;;;;;;19.64;48.39;100473.69;2065610;28;20034;-61
2021/04/29 01:40:11;;;;;;;7.95;3.67;;;;;;;19.65;48.28;100478.09;2065689;28;20080;-61
2021/04/29 01:41:11;;;;;;;8.48;3.17;;;;;;;19.66;48.34;100477.06;2065202;28;20363;-61
2021/04/29 01:42:12;;;;;;;8.93;3.53;;;;;;;19.65;48.25;100483.53;2065642;28;20037;-61
2021/04/29 01:43:13;;;;;;;8.48;3.58;;;;;;;19.64;48.29;100472.88;2065556;28;20019;-61
2021/04/29 01:44:15;;;;;;;9.65;3.22;;;;;;;19.64;48.30;100481.00;2065567;28;20700;-61
2021/04/29 01:45:16;;;;;;;8.02;3.40;;;;;;;19.65;48.29;100475.38;2065554;28;20022;-61
2021/04/29 01:46:16;;;;;;;8.82;3.03;;;;;;;19.65;48.36;100479.97;2065340;28;20432;-61
2021/04/29 01:47:18;;;;;;;9.35;3.30;;;;;;;19.64;48.38;100484.56;2065489;28;20041;-61
2021/04/29 01:48:18;;;;;;;7.30;3.28;;;;;;;19.64;48.30;100475.59;2064985;28;20034;-61
2021/04/29 01:49:19;;;;;;;7.63;2.92;;;;;;;19.63;48.16;100477.47;2065554;28;20492;-61
2021/04/29 01:50:19;;;;;;;9.02;3.00;;;;;;;19.61;48.46;100478.69;2065526;28;20049;-61
2021/04/29 01:51:22;;;;;;;7.75;3.10;;;;;;;19.61;48.38;100475.97;2065285;28;20505;-61
2021/04/29 01:52:22;;;;;;;10.20;3.72;;;;;;;19.62;48.34;100470.34;2065473;28;20080;-61
2021/04/29 01:53:25;;;;;;;8.88;3.20;;;;;;;19.62;48.24;100478.50;2065626;28;20120;-61
2021/04/29 01:54:26;;;;;;;8.93;3.25;;;;;;;19.61;48.42;100476.81;2065514;28;20026;-61
2021/04/29 01:55:27;;;;;;;8.82;3.28;;;;;;;19.62;48.08;100478.50;2064909;28;20029;-61
2021/04/29 01:56:28;;;;;;;6.47;3.00;;;;;;;19.60;48.22;100467.00;2059181;28;20145;-61
2021/04/29 01:57:29;;;;;;;8.90;3.30;;;;;;;19.60;48.47;100474.31;2065534;28;20121;-61
2021/04/29 01:58:29;;;;;;;7.78;3.33;;;;;;;19.59;48.24;100475.34;2065356;28;20426;-62
2021/04/29 01:59:30;;;;;;;9.85;3.40;;;;;;;19.58;48.61;100474.50;2065544;28;20046;-61
2021/04/29 02:00:30;;;;;;;6.60;3.08;;;;;;;19.59;48.46;100468.03;2065400;28;20050;-61
2021/04/29 02:01:31;;;;;;;7.50;3.42;;;;;;;19.58;48.31;100469.09;2065503;28;20022;-61
2021/04/29 02:02:32;;;;;;;7.85;3.28;;;;;;;19.59;48.18;100476.19;2065290;28;20075;-61
2021/04/29 02:03:33;;;;;;;9.30;3.17;;;;;;;19.59;48.50;100473.47;2064919;28;20030;-61
2021/04/29 02:04:34;;;;;;;6.20;2.97;;;;;;;19.59;48.43;100472.63;2065353;28;20026;-61
2021/04/29 02:05:34;;;;;;;8.25;3.20;;;;;;;19.59;48.15;100468.03;2065296;28;20135;-61
2021/04/29 02:06:42;;;;;;;9.00;3.25;;;;;;;19.58;48.16;100471.78;2065012;28;20026;-61
2021/04/29 02:07:43;;;;;;;6.78;3.08;;;;;;;19.58;48.37;100476.41;2065412;28;20030;-60
2021/04/29 02:08:44;;;;;;;9.52;3.28;;;;;;;19.58;48.20;100469.09;2065232;28;20030;-61
2021/04/29 02:09:44;;;;;;;7.28;3.08;;;;;;;19.58;48.55;100474.50;2065404;28;20495;-62
2021/04/29 02:10:48;;;;;;;7.63;3.17;;;;;;;19.56;48.15;100473.03;2064765;28;20022;-61
2021/04/29 02:11:54;;;;;;;7.45;3.00;;;;;;;19.56;48.14;100471.16;2064813;28;20037;-61
2021/04/29 02:12:56;;;;;;;8.98;3.35;;;;;;;19.56;48.36;100473.88;2064134;28;20026;-61
2021/04/29 02:13:59;;;;;;;7.78;3.28;;;;;;;19.56;48.06;100471.16;2060931;28;20041;-61
2021/04/29 02:15:04;;;;;;;6.28;2.83;;;;;;;19.56;47.99;100464.91;2065452;28;20188;-61
2021/04/29 02:16:17;;;;;;;6.28;2.85;;;;;;;19.55;48.05;100468.66;2065275;28;20029;-61
2021/04/29 02:17:56;;;;;;;8.68;3.42;;;;;;;19.52;48.05;100473.44;2065445;28;20018;-60
2021/04/29 02:18:58;;;;;;;6.03;2.90;;;;;;;19.54;48.38;100472.41;2061527;28;20375;-61
2021/04/29 02:20:02;;;;;;;8.48;3.00;;;;;;;19.53;48.76;100482.44;2065260;28;20027;-61
2021/04/29 02:21:03;;;;;;;9.55;3.10;;;;;;;19.53;48.18;100477.00;2065300;28;20478;-61
2021/04/29 02:22:04;;;;;;;7.25;2.97;;;;;;;19.51;48.47;100471.78;2064989;28;20541;-61
2021/04/29 02:23:11;;;;;;;10.65;3.25;;;;;;;19.52;48.62;100467.19;2065317;28;20030;-61
2021/04/29 02:24:13;;;;;;;6.93;2.78;;;;;;;19.54;48.47;100472.41;2064444;28;20046;-61
2021/04/29 02:25:15;;;;;;;8.85;3.40;;;;;;;19.53;48.27;100474.28;2063973;28;20030;-61
2021/04/29 02:26:20;;;;;;;8.70;3.03;;;;;;;19.52;48.06;100475.31;2065267;28;20065;-61
2021/04/29 02:27:21;;;;;;;8.30;2.63;;;;;;;19.51;48.73;100476.34;2065208;28;20103;-61
2021/04/29 02:28:23;;;;;;;7.38;2.92;;;;;;;19.52;48.73;100476.16;2065067;28;20386;-61
2021/04/29 02:29:25;;;;;;;8.32;3.33;;;;;;;19.51;48.80;100482.63;2065117;28;20030;-61
2021/04/29 02:30:26;;;;;;;6.97;3.15;;;;;;;19.50;48.77;100475.53;2065133;28;20080;-61
2021/04/29 02:31:27;;;;;;;9.52;2.70;;;;;;;19.50;48.83;100472.81;2065042;28;20022;-61
2021/04/29 02:32:29;;;;;;;8.00;3.08;;;;;;;19.51;48.89;100479.06;2064630;28;20501;-61
2021/04/29 02:33:30;;;;;;;8.43;2.97;;;;;;;19.50;48.89;100478.25;2065097;28;20405;-61
2021/04/29 02:34:31;;;;;;;6.80;3.17;;;;;;;19.50;48.70;100477.41;2065136;28;20027;-61
2021/04/29 02:35:32;;;;;;;7.22;2.72;;;;;;;19.50;48.64;100475.53;2065191;28;20394;-61
2021/04/29 02:36:34;;;;;;;6.28;3.00;;;;;;;19.49;48.68;100473.81;2064104;28;20124;-61
2021/04/29 02:37:34;;;;;;;7.43;2.92;;;;;;;19.49;48.40;100481.13;2064459;28;20029;-61
2021/04/29 02:38:36;;;;;;;6.85;2.53;;;;;;;19.51;48.57;100476.34;2060811;28;20533;-61
2021/04/29 02:39:37;;;;;;;6.20;2.42;;;;;;;19.49;48.71;100475.69;2065236;28;20038;-61
2021/04/29 02:40:37;;;;;;;6.80;2.95;;;;;;;19.51;48.49;100477.19;2064626;28;20045;-61
2021/04/29 02:41:39;;;;;;;8.18;2.88;;;;;;;19.52;48.69;100478.03;2065176;28;20030;-60
2021/04/29 02:42:40;;;;;;;8.43;3.00;;;;;;;19.49;48.55;100464.84;2064345;28;20072;-61
2021/04/29 02:43:40;;;;;;;6.60;2.45;;;;;;;19.50;48.66;100480.13;2064487;28;20030;-61
2021/04/29 02:44:41;;;;;;;7.03;2.58;;;;;;;19.48;48.58;100472.16;2063597;28;20088;-61
2021/04/29 02:45:45;;;;;;;7.10;2.88;;;;;;;19.49;48.66;100467.53;2064822;28;20041;-61
2021/04/29 02:46:46;;;;;;;7.07;2.78;;;;;;;19.49;48.41;100470.25;2065054;28;20038;-62
2021/04/29 02:47:51;;;;;;;7.03;2.90;;;;;;;19.49;48.93;100472.97;2064474;28;20500;-61
2021/04/29 02:48:52;;;;;;;6.50;2.50;;;;;;;19.49;48.39;100470.25;2064306;28;20035;-60
2021/04/29 02:49:52;;;;;;;5.38;2.67;;;;;;;19.49;48.61;100465.66;2064399;28;20026;-61
2021/04/29 02:50:54;;;;;;;5.22;2.70;;;;;;;19.49;48.63;100472.97;2065201;28;20386;-61
2021/04/29 02:51:55;;;;;;;7.28;2.75;;;;;;;19.47;48.75;100465.06;2064701;28;20042;-61
2021/04/29 02:52:58;;;;;;;5.97;2.80;;;;;;;19.47;48.72;100473.22;2065118;28;20553;-61
2021/04/29 02:53:59;;;;;;;10.50;2.88;;;;;;;19.47;49.08;100472.38;2064989;28;20032;-61
2021/04/29 02:55:00;;;;;;;6.70;2.60;;;;;;;19.46;49.45;100471.53;2064702;28;20045;-61
2021/04/29 02:56:00;;;;;;;7.43;2.60;;;;;;;19.47;48.99;100472.38;2065013;28;20088;-61
2021/04/29 02:57:01;;;;;;;6.03;2.38;;;;;;;19.46;49.26;100476.97;2065119;28;20493;-61
2021/04/29 02:58:05;;;;;;;5.93;3.20;;;;;;;19.45;49.06;100474.44;2064959;28;20045;-61
2021/04/29 02:59:07;;;;;;;7.40;2.90;;;;;;;19.44;49.33;100470.91;2064541;28;20105;-61
2021/04/29 03:00:16;;;;;;;5.05;2.13;;;;;;;19.43;49.46;100477.38;2064301;28;20582;-61
2021/04/29 03:01:16;;;;;;;5.25;2.58;;;;;;;19.43;49.14;100477.38;2065063;28;20031;-61
2021/04/29 03:02:17;;;;;;;5.60;2.50;;;;;;;19.43;49.14;100482.78;2064361;28;20486;-61
2021/04/29 03:03:17;;;;;;;5.25;2.58;;;;;;;19.42;49.70;100474.84;2065117;28;20046;-61
2021/04/29 03:04:18;;;;;;;7.00;2.50;;;;;;;19.42;48.65;100478.41;2064767;28;20402;-61
2021/04/29 03:05:19;;;;;;;5.55;2.45;;;;;;;19.42;48.99;100472.13;2064989;28;20088;-61
2021/04/29 03:06:21;;;;;;;6.95;2.88;;;;;;;19.41;49.25;100467.75;2064561;28;20057;-61
2021/04/29 03:07:21;;;;;;;6.05;2.80;;;;;;;19.40;49.41;100468.78;2065118;28;20489;-61
2021/04/29 03:08:22;;;;;;;8.23;2.67;;;;;;;19.41;49.23;100474.00;2064752;28;20030;-60
2021/04/29 03:09:23;;;;;;;6.97;2.47;;;;;;;19.40;49.39;100468.78;2064438;28;20030;-61
2021/04/29 03:10:23;;;;;;;6.63;2.65;;;;;;;19.41;49.18;100479.44;2064743;28;20489;-61
2021/04/29 03:11:24;;;;;;;6.47;2.50;;;;;;;19.40;49.25;100479.66;2065010;28;20029;-61
2021/04/29 03:12:25;;;;;;;6.55;2.83;;;;;;;19.39;49.32;100478.81;2064896;28;20034;-61
2021/04/29 03:13:25;;;;;;;5.82;2.90;;;;;;;19.39;49.42;100476.09;2065014;28;20138;-61
2021/04/29 03:14:26;;;;;;;5.20;2.22;;;;;;;19.40;49.40;100474.22;2064774;28;20389;-61
2021/04/29 03:15:27;;;;;;;5.57;2.47;;;;;;;19.39;49.77;100473.38;2064988;28;20037;-61
2021/04/29 03:16:27;;;;;;;4.97;2.08;;;;;;;19.40;49.70;100482.34;2064826;28;20042;-61
2021/04/29 03:17:28;;;;;;;4.78;2.38;;;;;;;19.39;49.37;100477.97;2064418;28;20033;-61
2021/04/29 03:18:28;;;;;;;3.97;2.35;;;;;;;19.38;49.08;100479.00;2064732;28;20439;-61
2021/04/29 03:19:29;;;;;;;7.00;2.80;;;;;;;19.40;49.00;100482.34;2064850;28;20030;-61
2021/04/29 03:20:29;;;;;;;6.07;2.50;;;;;;;19.39;48.89;100470.66;2064854;28;20026;-61
2021/04/29 03:21:30;;;;;;;8.73;2.80;;;;;;;19.39;49.03;100477.97;2064588;28;20066;-61
2021/04/29 03:22:30;;;;;;;4.80;2.53;;;;;;;19.40;48.96;100471.50;2064732;28;20038;-61
2021/04/29 03:23:31;;;;;;;6.93;2.47;;;;;;;19.41;48.67;100481.31;2064220;28;20022;-61
2021/04/29 03:24:31;;;;;;;5.22;2.40;;;;;;;19.40;48.48;100477.78;2063586;28;20027;-61
2021/04/29 03:25:32;;;;;;;3.97;2.08;;;;;;;19.41;48.66;100478.59;2064667;28;20077;-60
2021/04/29 03:26:32;;;;;;;6.07;2.65;;;;;;;19.40;48.65;100482.34;2063907;28;20026;-61
2021/04/29 03:27:33;;;;;;;8.23;3.17;;;;;;;19.40;48.58;100479.66;2064088;28;20029;-61
2021/04/29 03:28:33;;;;;;;6.80;2.92;;;;;;;19.40;48.60;100475.06;2064800;28;20034;-61
2021/04/29 03:29:34;;;;;;;5.80;2.65;;;;;;;19.40;48.56;100490.50;2064734;28;20466;-61
2021/04/29 03:30:34;;;;;;;7.43;2.63;;;;;;;19.41;48.42;100481.31;2064759;28;20482;-61
2021/04/29 03:31:35;;;;;;;5.65;2.80;;;;;;;19.41;48.53;100484.03;2064117;28;20108;-61
2021/04/29 03:32:35;;;;;;;6.18;2.67;;;;;;;19.41;48.62;100481.31;2064750;28;20544;-61
2021/04/29 03:33:36;;;;;;;7.60;3.00;;;;;;;19.39;48.33;100483.41;2064781;28;20026;-61
2021/04/29 03:34:36;;;;;;;4.95;2.45;;;;;;;19.39;48.39;100492.38;2064686;28;20038;-61
2021/04/29 03:35:37;;;;;;;4.97;2.63;;;;;;;19.40;48.46;100485.06;2064637;28;20421;-61
2021/04/29 03:36:38;;;;;;;5.55;2.47;;;;;;;19.40;48.39;100482.34;2064363;28;20114;-61
2021/04/29 03:37:39;;;;;;;6.35;2.60;;;;;;;19.38;48.68;100488.00;2064729;28;20042;-61
2021/04/29 03:38:40;;;;;;;7.03;2.85;;;;;;;19.38;48.36;100479.00;2064771;28;20053;-61
2021/04/29 03:39:40;;;;;;;5.32;2.83;;;;;;;19.37;48.47;100483.59;2063485;28;20034;-61
2021/04/29 03:40:41;;;;;;;5.15;2.55;;;;;;;19.36;48.17;100484.63;2063925;28;20045;-61
2021/04/29 03:41:42;;;;;;;5.65;2.40;;;;;;;19.37;48.13;100477.34;2064680;28;20452;-61
2021/04/29 03:42:42;;;;;;;5.88;2.90;;;;;;;19.37;48.63;100482.75;2064386;28;20065;-61
2021/04/29 03:43:42;;;;;;;5.32;2.83;;;;;;;19.36;48.49;100483.81;2064394;28;20035;-61
2021/04/29 03:44:43;;;;;;;5.53;2.40;;;;;;;19.35;48.30;100480.25;2064491;28;20477;-61
2021/04/29 03:45:43;;;;;;;4.30;2.40;;;;;;;19.36;48.49;100483.81;2064461;28;20022;-61
2021/04/29 03:46:44;;;;;;;6.20;2.40;;;;;;;19.34;48.42;100475.84;2063893;28;20069;-61
2021/04/29 03:47:45;;;;;;;5.00;2.50;;;;;;;19.37;48.39;100477.34;2064580;28;20038;-61
2021/04/29 03:48:45;;;;;;;5.13;2.60;;;;;;;19.36;48.28;100476.50;2064480;28;20234;-61
2021/04/29 03:49:46;;;;;;;6.10;2.65;;;;;;;19.35;48.37;100482.97;2064435;28;20081;-61
2021/04/29 03:50:46;;;;;;;5.00;2.65;;;;;;;19.35;48.16;100480.25;2064507;28;20105;-61
2021/04/29 03:51:47;;;;;;;6.53;2.63;;;;;;;19.35;47.99;100476.69;2064509;28;20029;-61
2021/04/29 03:52:47;;;;;;;6.28;2.60;;;;;;;19.34;48.25;100481.28;2064534;28;20034;-61
2021/04/29 03:53:48;;;;;;;5.65;2.80;;;;;;;19.35;48.52;100482.13;2064112;28;20393;-61
2021/04/29 03:54:48;;;;;;;5.55;2.63;;;;;;;19.33;48.02;100476.06;2064484;28;20033;-61
2021/04/29 03:55:49;;;;;;;4.60;2.53;;;;;;;19.33;48.35;100476.91;2064642;28;20105;-60
2021/04/29 03:56:51;;;;;;;5.80;2.70;;;;;;;19.35;48.28;100477.53;2064479;28;20041;-61
2021/04/29 03:57:51;;;;;;;6.38;2.60;;;;;;;19.35;48.47;100479.41;2064705;28;20494;-61
2021/04/29 03:58:52;;;;;;;4.70;2.70;;;;;;;19.33;48.22;100478.78;2064460;28;20078;-61
2021/04/29 03:59:52;;;;;;;5.28;3.00;;;;;;;19.34;48.40;100480.44;2064614;28;20045;-61
2021/04/29 04:00:53;;;;;;;4.97;2.42;;;;;;;19.35;48.31;100482.13;2064472;28;20057;-61
2021/04/29 04:01:54;;;;;;;6.72;2.33;;;;;;;19.32;48.02;100482.53;2063896;28;20084;-61
2021/04/29 04:02:55;;;;;;;3.90;2.15;;;;;;;19.32;48.40;100479.81;2064436;28;20466;-61
2021/04/29 04:03:55;;;;;;;4.88;2.63;;;;;;;19.31;48.52;100481.69;2064557;28;20390;-61
2021/04/29 04:04:56;;;;;;;6.10;2.30;;;;;;;19.31;48.33;100481.69;2064592;28;20054;-60
2021/04/29 04:05:56;;;;;;;4.72;2.60;;;;;;;19.31;48.11;100480.84;2064549;28;20026;-61
2021/04/29 04:06:57;;;;;;;5.40;2.45;;;;;;;19.32;48.66;100482.53;2064023;28;20077;-61
2021/04/29 04:07:58;;;;;;;6.40;2.63;;;;;;;19.32;48.27;100485.25;2064383;28;20116;-61
2021/04/29 04:08:58;;;;;;;5.93;2.28;;;;;;;19.30;48.40;100482.72;2063830;28;20061;-61
2021/04/29 04:09:58;;;;;;;4.95;2.75;;;;;;;19.31;48.75;100487.13;2063663;28;20034;-61
2021/04/29 04:10:59;;;;;;;7.45;2.75;;;;;;;19.31;48.27;100487.13;2063922;28;20031;-61
2021/04/29 04:12:00;;;;;;;5.45;2.47;;;;;;;19.30;48.09;100488.16;2064384;28;20497;-61
2021/04/29 04:13:00;;;;;;;6.13;2.78;;;;;;;19.30;48.14;100485.44;2064492;28;20097;-61
2021/04/29 04:14:02;;;;;;;5.32;2.50;;;;;;;19.34;48.98;100488.59;2063794;28;20152;-63
2021/04/29 04:15:04;;;;;;;5.72;2.42;;;;;;;19.33;48.69;100484.19;2064399;28;20028;-61
2021/04/29 04:16:05;;;;;;;4.43;1.92;;;;;;;19.32;48.44;100491.50;2063846;28;20463;-61
2021/04/29 04:17:05;;;;;;;8.55;2.65;;;;;;;19.32;48.04;100488.78;2064356;28;20066;-61
2021/04/29 04:18:06;;;;;;;10.68;2.80;;;;;;;19.34;48.29;100483.16;2064427;28;20026;-61
2021/04/29 04:19:06;;;;;;;11.43;2.40;;;;;;;19.37;48.39;100486.31;2064432;28;20046;-61
2021/04/29 04:20:07;;;;;;;9.85;2.40;;;;;;;19.38;48.45;100490.69;2064410;28;20034;-60
2021/04/29 04:21:09;;;;;;;6.50;2.53;;;;;;;19.37;48.33;100489.03;2064422;28;20096;-61
2021/04/29 04:22:09;;;;;;;5.68;2.85;;;;;;;19.35;48.17;100490.25;2064252;28;20544;-60
2021/04/29 04:23:10;;;;;;;6.25;2.83;;;;;;;19.35;48.37;100490.25;2064548;28;20069;-61
2021/04/29 04:24:10;;;;;;;5.90;2.72;;;;;;;19.33;48.68;100484.19;2063757;28;20493;-60
2021/04/29 04:25:11;;;;;;;11.35;3.22;;;;;;;19.33;48.50;100490.47;2064402;28;20022;-61
2021/04/29 04:26:12;;;;;;;8.43;2.83;;;;;;;19.32;48.64;100496.94;2064249;28;20433;-60
2021/04/29 04:27:12;;;;;;;7.25;2.70;;;;;;;19.31;48.61;100489.00;2064347;28;20026;-60
2021/04/29 04:28:14;;;;;;;7.68;2.88;;;;;;;19.30;48.52;100487.31;2064224;28;20030;-61
2021/04/29 04:29:14;;;;;;;5.18;2.60;;;;;;;19.29;48.49;100488.34;2064335;28;20541;-61
2021/04/29 04:30:15;;;;;;;4.22;2.17;;;;;;;19.29;48.46;100496.50;2064201;28;20030;-61
2021/04/29 04:31:15;;;;;;;5.03;2.38;;;;;;;19.26;48.51;100494.22;2063969;28;20030;-60
2021/04/29 04:32:16;;;;;;;5.80;2.67;;;;;;;19.27;48.49;100495.88;2064208;28;20038;-61
2021/04/29 04:33:16;;;;;;;10.30;2.92;;;;;;;19.27;48.58;100495.88;2064498;28;20462;-61
2021/04/29 04:34:17;;;;;;;5.60;2.63;;;;;;;19.26;48.70;100486.06;2064324;28;20108;-61
2021/04/29 04:35:17;;;;;;;5.72;2.45;;;;;;;19.24;48.62;100494.41;2064447;28;20033;-61
2021/04/29 04:36:18;;;;;;;6.50;2.55;;;;;;;19.23;48.51;100492.72;2063953;28;20061;-60
2021/04/29 04:37:19;;;;;;;5.95;2.63;;;;;;;19.24;48.73;100499.00;2064314;28;20026;-60
2021/04/29 04:38:19;;;;;;;6.53;2.83;;;;;;;19.23;48.82;100500.88;2063051;28;20085;-61
2021/04/29 04:39:20;;;;;;;5.45;2.95;;;;;;;19.23;48.60;100495.44;2063888;28;20489;-60
2021/04/29 04:40:20;;;;;;;4.65;2.65;;;;;;;19.21;48.91;100500.22;2062006;28;20026;-60
2021/04/29 04:41:21;;;;;;;7.85;2.58;;;;;;;19.21;48.80;100500.22;2064415;28;20482;-61
2021/04/29 04:42:21;;;;;;;4.43;2.28;;;;;;;19.22;48.82;100504.63;2064232;28;20027;-61
2021/04/29 04:43:22;;;;;;;4.63;2.30;;;;;;;19.22;48.87;100504.63;2064474;28;20458;-60
2021/04/29 04:44:23;;;;;;;6.05;2.42;;;;;;;19.19;48.85;100502.31;2064222;28;20042;-60
2021/04/29 04:45:23;;;;;;;8.13;2.63;;;;;;;19.19;48.94;100502.31;2064259;28;20018;-61